Terminal Aerodrome Forecast
Issued by NWS

Current Version | Previous Version | Graphics & Text | Print | Product List | Glossary On
Versions: 1 2 3 4 5 6 7 8 9 10 11 12 13 14 15 16
000
FTUS41 KRNK 220533
TAFLWB
TAF
KLWB 220533Z 2206/2306 00000KT P6SM SCT005
     FM220900 00000KT 1/2SM FG BKN003
     FM221400 25006KT P6SM SCT025
     FM221800 24004KT P6SM VCTS BKN040CB=

USA.gov is the U.S. government's official web portal to all federal, state and local government web resources and services.